Time;durP1;ratioP1;P1;durP2;ratioP2;P2;SDS_P1;SDS_P2;PMS_P1;PMS_P2;Temp;Humidity;BMP_temperature;BMP_pressure;BME280_temperature;BME280_humidity;BME280_pressure;Samples;Min_cycle;Max_cycle;Signal;HPM_P1;HPM_P2
2021/11/20 00:00:36;;;;;;;617.90;585.47;;;11.60;99.90;;;;;;4389584;32;20220;-62
2021/11/20 00:03:04;;;;;;;645.10;611.23;;;11.60;99.90;;;;;;4375522;32;20174;-62
2021/11/20 00:05:37;;;;;;;615.83;583.13;;;11.70;99.90;;;;;;4376075;32;20160;-62
2021/11/20 00:08:05;;;;;;;631.13;597.93;;;11.60;99.90;;;;;;4379264;32;20661;-63
2021/11/20 00:10:35;;;;;;;632.43;598.33;;;11.70;99.90;;;;;;4375941;32;20164;-62
2021/11/20 00:13:07;;;;;;;622.00;588.67;;;11.70;99.90;;;;;;4387771;32;20663;-62
2021/11/20 00:15:36;;;;;;;627.70;594.40;;;11.70;99.90;;;;;;4390486;32;20166;-62
2021/11/20 00:18:04;;;;;;;644.23;609.83;;;11.70;99.90;;;;;;4382506;32;20583;-62
2021/11/20 00:20:38;;;;;;;613.00;580.40;;;11.70;99.90;;;;;;4387997;32;20168;-62
2021/11/20 00:23:05;;;;;;;611.80;579.93;;;11.70;99.90;;;;;;4388668;32;20155;-62
2021/11/20 00:25:42;;;;;;;613.63;580.90;;;11.60;99.90;;;;;;4390378;32;20259;-62
2021/11/20 00:28:16;;;;;;;629.87;596.97;;;11.60;99.90;;;;;;4389649;32;20193;-62
2021/11/20 00:30:52;;;;;;;624.67;591.20;;;11.60;99.90;;;;;;4392039;32;20157;-63
2021/11/20 00:33:21;;;;;;;609.80;577.93;;;11.70;99.90;;;;;;4385385;32;20190;-62
2021/11/20 00:35:48;;;;;;;626.17;593.27;;;11.60;99.90;;;;;;4383571;32;20227;-62
2021/11/20 00:38:16;;;;;;;634.10;600.57;;;11.60;99.90;;;;;;4390033;32;20176;-62
2021/11/20 00:40:45;;;;;;;636.47;602.90;;;11.60;99.90;;;;;;4387221;32;20219;-62
2021/11/20 00:43:16;;;;;;;610.10;577.40;;;11.50;99.90;;;;;;4390000;32;20218;-62
2021/11/20 00:45:44;;;;;;;625.87;593.07;;;11.50;99.90;;;;;;4389410;32;20207;-62
2021/11/20 00:48:12;;;;;;;621.00;588.10;;;11.60;99.90;;;;;;4391799;32;20168;-62
2021/11/20 00:50:42;;;;;;;612.50;580.17;;;11.60;99.90;;;;;;4390533;32;20195;-62
2021/11/20 00:53:09;;;;;;;612.90;580.80;;;11.50;99.90;;;;;;4390116;32;20148;-62
2021/11/20 00:55:37;;;;;;;607.63;574.93;;;11.50;99.90;;;;;;4390643;32;20164;-62
2021/11/20 00:58:05;;;;;;;613.53;581.37;;;11.50;99.90;;;;;;4390970;32;20144;-62
2021/11/20 01:00:37;;;;;;;614.33;581.47;;;11.50;99.90;;;;;;4388472;32;20207;-62
2021/11/20 01:03:04;;;;;;;608.30;576.37;;;11.50;99.90;;;;;;4383417;32;20186;-62
2021/11/20 01:05:32;;;;;;;606.80;574.37;;;11.40;99.90;;;;;;4377863;32;20152;-62
2021/11/20 01:07:59;;;;;;;614.93;582.50;;;11.40;99.90;;;;;;4385367;32;20156;-62
2021/11/20 01:10:35;;;;;;;609.03;576.60;;;11.40;99.90;;;;;;4381699;32;20593;-62
2021/11/20 01:13:04;;;;;;;631.50;596.90;;;11.40;99.90;;;;;;4392961;32;20586;-62
2021/11/20 01:15:37;;;;;;;609.60;577.57;;;11.40;99.90;;;;;;4392951;32;20211;-62
2021/11/20 01:18:04;;;;;;;623.33;589.57;;;11.30;99.90;;;;;;4392513;32;20568;-62
2021/11/20 01:20:32;;;;;;;606.83;574.57;;;11.30;99.90;;;;;;4381434;32;20208;-62
2021/11/20 01:22:59;;;;;;;616.03;582.77;;;11.30;99.90;;;;;;4378748;32;20160;-62
2021/11/20 01:25:26;;;;;;;623.70;590.70;;;11.30;99.90;;;;;;4377490;32;20215;-62
2021/11/20 01:27:53;;;;;;;640.00;605.70;;;11.30;99.90;;;;;;4377894;32;20167;-62
2021/11/20 01:30:21;;;;;;;620.60;587.50;;;11.30;99.90;;;;;;4377491;32;20183;-62
2021/11/20 01:32:49;;;;;;;617.90;585.07;;;11.30;99.90;;;;;;4377109;32;20194;-62
2021/11/20 01:35:18;;;;;;;621.17;588.43;;;11.20;99.90;;;;;;4385459;32;20224;-62
2021/11/20 01:37:45;;;;;;;626.60;593.23;;;11.20;99.90;;;;;;4391801;32;20526;-62
2021/11/20 01:40:16;;;;;;;627.20;593.37;;;11.30;99.90;;;;;;4382524;32;20179;-62
2021/11/20 01:42:44;;;;;;;607.23;574.07;;;11.30;99.90;;;;;;4377518;32;20215;-63
2021/11/20 01:45:15;;;;;;;609.73;577.27;;;11.20;99.90;;;;;;4392232;32;20167;-62
2021/11/20 01:47:48;;;;;;;620.80;587.70;;;11.20;99.90;;;;;;4393982;32;20163;-62
2021/11/20 01:50:19;;;;;;;603.80;571.73;;;11.30;99.90;;;;;;4391210;32;20243;-61
2021/11/20 01:52:52;;;;;;;607.10;574.43;;;11.30;99.90;;;;;;4391423;32;20168;-62
2021/11/20 01:55:28;;;;;;;609.17;577.03;;;11.30;99.90;;;;;;4392092;32;20190;-62
2021/11/20 01:58:00;;;;;;;600.40;568.40;;;11.40;99.90;;;;;;4392065;32;20169;-62
2021/11/20 02:00:33;;;;;;;617.63;584.90;;;11.40;99.90;;;;;;4390017;32;20156;-62
2021/11/20 02:03:10;;;;;;;607.53;575.43;;;11.40;99.90;;;;;;4378590;32;20149;-62
2021/11/20 02:05:50;;;;;;;601.10;569.17;;;11.30;99.90;;;;;;4391232;32;20171;-61
2021/11/20 02:08:22;;;;;;;628.53;594.90;;;11.40;99.90;;;;;;4390261;32;20186;-62
2021/11/20 02:10:53;;;;;;;614.73;581.63;;;11.40;99.90;;;;;;4382357;32;20186;-62
2021/11/20 02:13:23;;;;;;;618.07;584.80;;;11.40;99.90;;;;;;4391662;32;20170;-62
2021/11/20 02:15:55;;;;;;;615.20;581.80;;;11.40;99.90;;;;;;4378871;32;20255;-62
2021/11/20 02:18:26;;;;;;;605.87;572.97;;;11.30;99.90;;;;;;4376882;32;20144;-62
2021/11/20 02:21:03;;;;;;;618.37;584.77;;;11.30;99.90;;;;;;4382156;32;20194;-62
2021/11/20 02:23:29;;;;;;;615.60;582.13;;;11.30;99.90;;;;;;4392056;32;20162;-62
2021/11/20 02:25:58;;;;;;;608.87;576.13;;;11.40;99.90;;;;;;4391988;32;20556;-62
2021/11/20 02:28:27;;;;;;;614.90;581.00;;;11.40;99.90;;;;;;4392530;32;20179;-62
2021/11/20 02:30:55;;;;;;;620.53;586.97;;;11.40;99.90;;;;;;4390658;32;20703;-62
2021/11/20 02:33:25;;;;;;;629.73;595.27;;;11.40;99.90;;;;;;4380405;32;20211;-63
2021/11/20 02:35:54;;;;;;;640.63;605.83;;;11.40;99.90;;;;;;4390973;32;20212;-62
2021/11/20 02:38:23;;;;;;;622.30;588.40;;;11.40;99.90;;;;;;4390185;32;20277;-61
2021/11/20 02:40:51;;;;;;;628.93;595.37;;;11.40;99.90;;;;;;4385855;32;20468;-62
2021/11/20 02:43:18;;;;;;;603.93;571.53;;;11.40;99.90;;;;;;4390225;32;20198;-62
2021/11/20 02:45:48;;;;;;;624.20;590.30;;;11.40;99.90;;;;;;4391435;32;20186;-62
2021/11/20 02:48:17;;;;;;;636.87;601.67;;;11.40;99.90;;;;;;4391439;32;20194;-61
2021/11/20 02:50:46;;;;;;;615.13;581.63;;;11.40;99.90;;;;;;4392951;32;20524;-62
2021/11/20 02:53:16;;;;;;;640.97;605.17;;;11.40;99.90;;;;;;4383168;32;20215;-62
2021/11/20 02:55:45;;;;;;;612.67;579.60;;;11.40;99.90;;;;;;4376328;32;20220;-62
2021/11/20 02:58:12;;;;;;;610.33;577.57;;;11.40;99.90;;;;;;4376255;32;20161;-62
2021/11/20 03:00:39;;;;;;;609.67;576.93;;;11.40;99.90;;;;;;4377029;32;20167;-62
2021/11/20 03:03:06;;;;;;;613.23;580.00;;;11.40;99.90;;;;;;4391279;32;20163;-62
2021/11/20 03:05:34;;;;;;;611.43;578.23;;;11.40;99.90;;;;;;4390332;32;20247;-62
2021/11/20 03:08:01;;;;;;;621.77;588.40;;;11.40;99.90;;;;;;4390751;32;20168;-62
2021/11/20 03:10:28;;;;;;;618.70;585.20;;;11.40;99.90;;;;;;4391315;32;20501;-62
2021/11/20 03:12:55;;;;;;;604.93;571.90;;;11.30;99.90;;;;;;4392716;32;20215;-62
2021/11/20 03:15:21;;;;;;;618.77;585.27;;;11.40;99.90;;;;;;4389621;32;20156;-62
2021/11/20 03:17:50;;;;;;;616.67;583.03;;;11.40;99.90;;;;;;4390267;32;20260;-62
2021/11/20 03:20:18;;;;;;;588.33;556.93;;;11.30;99.90;;;;;;4392658;32;20208;-62
2021/11/20 03:22:51;;;;;;;597.47;565.47;;;11.40;99.90;;;;;;4389746;32;20166;-62
2021/11/20 03:25:19;;;;;;;582.53;552.00;;;11.40;99.90;;;;;;4390977;32;20197;-62
2021/11/20 03:27:45;;;;;;;598.30;565.87;;;11.40;99.90;;;;;;4392259;32;20576;-62
2021/11/20 03:30:13;;;;;;;580.37;549.40;;;11.30;99.90;;;;;;4391415;32;20204;-62
2021/11/20 03:32:40;;;;;;;585.67;554.40;;;11.30;99.90;;;;;;4383988;32;20178;-62
2021/11/20 03:35:09;;;;;;;594.53;563.17;;;11.30;99.90;;;;;;4382059;32;20604;-62
2021/11/20 03:37:35;;;;;;;586.83;555.57;;;11.30;99.90;;;;;;4394085;32;20235;-62
2021/11/20 03:40:10;;;;;;;566.63;536.67;;;11.30;99.90;;;;;;4395935;32;20492;-62
2021/11/20 03:42:37;;;;;;;560.83;531.27;;;11.30;99.90;;;;;;4390974;32;20167;-62
2021/11/20 03:45:05;;;;;;;574.63;544.30;;;11.20;99.90;;;;;;4391746;32;20197;-62
2021/11/20 03:47:32;;;;;;;590.50;558.37;;;11.20;99.90;;;;;;4391987;32;20227;-62
2021/11/20 03:49:59;;;;;;;562.43;532.33;;;11.20;99.90;;;;;;4390740;32;20212;-61
2021/11/20 03:52:27;;;;;;;570.83;541.00;;;11.20;99.90;;;;;;4380359;32;20215;-62
2021/11/20 03:54:54;;;;;;;579.50;548.57;;;11.20;99.90;;;;;;4376090;32;20233;-62
2021/11/20 03:57:23;;;;;;;577.23;546.50;;;11.20;99.90;;;;;;4377248;32;20200;-62
2021/11/20 03:59:50;;;;;;;594.83;563.17;;;11.10;99.90;;;;;;4375311;32;20202;-62
2021/11/20 04:02:17;;;;;;;565.87;536.40;;;11.10;99.90;;;;;;4381110;32;20234;-62
2021/11/20 04:04:45;;;;;;;575.67;545.00;;;11.20;99.90;;;;;;4391615;32;20166;-62
2021/11/20 04:07:11;;;;;;;558.33;529.77;;;11.20;99.90;;;;;;4390528;32;20156;-62
2021/11/20 04:09:38;;;;;;;562.23;533.07;;;11.10;99.90;;;;;;4388298;32;20227;-62
2021/11/20 04:12:06;;;;;;;571.30;540.63;;;11.10;99.90;;;;;;4391507;32;20168;-61
2021/11/20 04:14:34;;;;;;;551.03;522.20;;;11.10;99.90;;;;;;4376411;32;20207;-62
2021/11/20 04:17:01;;;;;;;559.77;530.60;;;11.10;99.90;;;;;;4375190;32;20164;-62
2021/11/20 04:19:28;;;;;;;545.23;516.80;;;11.20;99.90;;;;;;4376876;32;20169;-62
2021/11/20 04:21:55;;;;;;;553.97;524.57;;;11.20;99.90;;;;;;4388847;32;20186;-62
2021/11/20 04:24:23;;;;;;;559.47;530.57;;;11.20;99.90;;;;;;4391079;32;20162;-62
2021/11/20 04:26:51;;;;;;;552.40;523.77;;;11.10;99.90;;;;;;4378749;32;20148;-61
2021/11/20 04:29:18;;;;;;;579.60;549.43;;;11.10;99.90;;;;;;4391601;32;20148;-62
2021/11/20 04:31:47;;;;;;;561.17;531.77;;;11.10;99.90;;;;;;4381926;32;20204;-62
2021/11/20 04:34:14;;;;;;;556.57;527.20;;;11.10;99.90;;;;;;4376911;32;20520;-62
2021/11/20 04:36:41;;;;;;;552.00;522.97;;;11.20;99.90;;;;;;4376794;32;20216;-62
2021/11/20 04:39:08;;;;;;;577.33;547.13;;;11.20;99.90;;;;;;4385272;32;20615;-62
2021/11/20 04:41:35;;;;;;;581.20;550.23;;;11.20;99.90;;;;;;4393560;32;20167;-62
2021/11/20 04:44:02;;;;;;;549.63;521.10;;;11.20;99.90;;;;;;4342260;32;1645539;-62
2021/11/20 04:46:30;;;;;;;552.87;524.30;;;11.10;99.90;;;;;;4394101;32;20180;-62
2021/11/20 04:48:58;;;;;;;553.80;525.50;;;11.10;99.90;;;;;;4394717;32;20226;-62
2021/11/20 04:51:26;;;;;;;536.30;508.07;;;11.10;99.90;;;;;;4393051;32;20202;-62
2021/11/20 04:53:53;;;;;;;561.70;531.83;;;11.10;99.90;;;;;;4389473;32;20175;-62
2021/11/20 04:56:23;;;;;;;548.00;519.83;;;11.10;99.90;;;;;;4394692;32;20159;-62
2021/11/20 04:58:50;;;;;;;552.50;524.03;;;11.10;99.90;;;;;;4394675;32;20572;-63
2021/11/20 05:01:18;;;;;;;558.23;529.17;;;11.10;99.90;;;;;;4392035;32;20162;-62
2021/11/20 05:03:47;;;;;;;565.67;536.00;;;11.10;99.90;;;;;;4391324;32;20152;-62
2021/11/20 05:06:16;;;;;;;545.57;517.33;;;11.10;99.90;;;;;;4392639;32;20215;-62
2021/11/20 05:08:42;;;;;;;545.73;517.33;;;11.10;99.90;;;;;;4393657;32;20205;-62
2021/11/20 05:11:10;;;;;;;532.47;505.10;;;11.10;99.90;;;;;;4392787;32;20211;-62
2021/11/20 05:13:37;;;;;;;569.67;539.77;;;11.10;99.90;;;;;;4391756;32;20239;-62
2021/11/20 05:16:04;;;;;;;563.40;533.27;;;11.10;99.90;;;;;;4392044;32;20164;-62
2021/11/20 05:18:31;;;;;;;554.07;525.00;;;11.10;99.90;;;;;;4391711;32;20223;-62
2021/11/20 05:21:01;;;;;;;561.97;532.67;;;11.10;99.90;;;;;;4392839;32;20623;-62
2021/11/20 05:23:31;;;;;;;565.17;535.53;;;11.00;99.90;;;;;;4392215;32;20140;-62
2021/11/20 05:25:58;;;;;;;541.53;513.63;;;11.10;99.90;;;;;;4392424;32;20152;-62
2021/11/20 05:28:25;;;;;;;542.83;514.33;;;11.00;99.90;;;;;;4393812;32;20567;-62
2021/11/20 05:30:52;;;;;;;545.10;517.40;;;11.10;99.90;;;;;;4392701;32;20163;-62
2021/11/20 05:33:22;;;;;;;553.30;524.83;;;11.10;99.90;;;;;;4394306;32;20164;-62
2021/11/20 05:35:50;;;;;;;532.57;504.57;;;11.00;99.90;;;;;;4381646;32;20148;-62
2021/11/20 05:38:17;;;;;;;559.37;530.20;;;11.00;99.90;;;;;;4384836;32;20160;-61
2021/11/20 05:40:46;;;;;;;547.77;518.93;;;10.90;99.90;;;;;;4376158;32;20186;-62
2021/11/20 05:43:16;;;;;;;555.97;527.10;;;10.90;99.90;;;;;;4382981;32;20690;-62
2021/11/20 05:45:47;;;;;;;560.20;530.63;;;11.00;99.90;;;;;;4384231;32;20175;-62
2021/11/20 05:48:14;;;;;;;568.60;538.60;;;11.00;99.90;;;;;;4381958;32;20239;-62
2021/11/20 05:50:41;;;;;;;562.97;533.47;;;11.00;99.90;;;;;;4383909;32;20166;-62
2021/11/20 05:53:10;;;;;;;564.27;534.80;;;11.00;99.90;;;;;;4382762;32;20152;-62
2021/11/20 05:55:37;;;;;;;542.53;514.93;;;11.00;99.90;;;;;;4381400;32;20232;-62
2021/11/20 05:58:05;;;;;;;551.77;523.07;;;11.00;99.90;;;;;;4377012;32;20159;-62
2021/11/20 06:00:36;;;;;;;547.33;518.67;;;11.00;99.90;;;;;;4377898;32;20247;-62
2021/11/20 06:03:04;;;;;;;530.77;503.37;;;11.10;99.90;;;;;;4378770;32;20145;-62
2021/11/20 06:05:33;;;;;;;536.53;508.93;;;11.00;99.90;;;;;;4377003;32;20235;-62
2021/11/20 06:08:00;;;;;;;551.97;523.00;;;11.00;99.90;;;;;;4388115;32;20655;-62
2021/11/20 06:10:28;;;;;;;552.80;523.70;;;11.00;99.90;;;;;;4392002;32;20215;-63
2021/11/20 06:12:55;;;;;;;552.73;523.40;;;11.00;99.90;;;;;;4381860;32;20271;-62
2021/11/20 06:15:24;;;;;;;550.70;522.10;;;11.00;99.90;;;;;;4381367;32;20164;-62
2021/11/20 06:17:51;;;;;;;554.27;525.03;;;11.00;99.90;;;;;;4389937;32;20164;-62
2021/11/20 06:20:18;;;;;;;550.17;521.73;;;10.90;99.90;;;;;;4391786;32;20206;-61
2021/11/20 06:22:46;;;;;;;548.30;519.87;;;10.90;99.90;;;;;;4392912;32;20189;-62
2021/11/20 06:25:13;;;;;;;549.53;520.40;;;10.90;99.90;;;;;;4387490;32;20228;-62
2021/11/20 06:27:40;;;;;;;556.80;527.60;;;10.90;99.90;;;;;;4376761;32;20160;-61
2021/11/20 06:30:09;;;;;;;551.30;521.77;;;10.90;99.90;;;;;;4387649;32;20148;-62
2021/11/20 06:32:38;;;;;;;548.27;518.77;;;10.90;99.90;;;;;;4388821;32;20236;-62
2021/11/20 06:35:07;;;;;;;564.07;533.70;;;10.90;99.90;;;;;;4385603;32;20597;-62
2021/11/20 06:37:34;;;;;;;546.93;517.40;;;10.90;99.90;;;;;;4389689;32;20144;-62
2021/11/20 06:40:01;;;;;;;557.40;527.70;;;10.90;99.90;;;;;;4383754;32;20186;-62
2021/11/20 06:42:28;;;;;;;551.33;521.67;;;10.80;99.90;;;;;;4388215;32;20172;-62
2021/11/20 06:44:55;;;;;;;568.07;537.13;;;10.80;99.90;;;;;;4390726;32;20179;-62
2021/11/20 06:47:22;;;;;;;548.40;519.03;;;10.90;99.90;;;;;;4390783;32;20148;-62
2021/11/20 06:49:50;;;;;;;558.30;528.10;;;10.80;99.90;;;;;;4390841;32;20614;-62
2021/11/20 06:52:18;;;;;;;565.57;535.03;;;10.80;99.90;;;;;;4388453;32;20162;-62
2021/11/20 06:54:45;;;;;;;534.90;506.33;;;10.80;99.90;;;;;;4380245;32;20190;-63
2021/11/20 06:57:14;;;;;;;547.00;517.73;;;10.80;99.90;;;;;;4379002;32;20243;-60
2021/11/20 07:02:33;;;;;;;525.27;497.80;;;10.80;99.90;;;;;;4380906;32;20232;-60
2021/11/20 07:05:01;;;;;;;526.73;499.10;;;10.70;99.90;;;;;;4385185;32;20230;-60
2021/11/20 07:07:28;;;;;;;556.20;527.03;;;10.70;99.90;;;;;;4387031;32;20144;-61
2021/11/20 07:09:56;;;;;;;536.40;508.27;;;10.70;99.90;;;;;;4387989;32;20516;-61
2021/11/20 07:12:23;;;;;;;510.07;483.60;;;10.70;99.90;;;;;;4382277;32;20306;-62
2021/11/20 07:14:50;;;;;;;534.17;506.03;;;10.70;99.90;;;;;;4384909;32;20279;-61
2021/11/20 07:17:17;;;;;;;528.03;500.47;;;10.70;99.90;;;;;;4387074;32;20344;-61
2021/11/20 07:19:44;;;;;;;533.47;505.87;;;10.80;99.90;;;;;;4387174;32;20261;-61
2021/11/20 07:22:12;;;;;;;530.90;503.20;;;10.80;99.90;;;;;;4387410;32;20221;-61
2021/11/20 07:24:39;;;;;;;528.73;501.00;;;10.80;99.90;;;;;;4384703;32;20175;-60
2021/11/20 07:27:06;;;;;;;509.63;484.00;;;10.80;99.90;;;;;;4378409;32;20606;-61
2021/11/20 07:29:34;;;;;;;503.17;477.80;;;10.80;99.90;;;;;;4385395;32;20170;-61
2021/11/20 07:32:00;;;;;;;509.00;483.43;;;10.80;99.90;;;;;;4377347;32;20228;-61
2021/11/20 07:34:27;;;;;;;539.30;511.70;;;10.90;99.90;;;;;;4380076;32;20220;-62
2021/11/20 07:36:55;;;;;;;525.23;498.70;;;10.80;99.90;;;;;;4380340;32;20156;-61
2021/11/20 07:39:23;;;;;;;515.17;488.53;;;10.80;99.90;;;;;;4381051;32;20214;-62
2021/11/20 07:41:51;;;;;;;529.03;501.47;;;10.80;99.90;;;;;;4382530;32;20254;-62
2021/11/20 07:44:18;;;;;;;521.07;494.00;;;10.90;99.90;;;;;;4382166;32;20463;-62
2021/11/20 07:46:45;;;;;;;514.97;488.37;;;10.90;99.90;;;;;;4375001;32;20223;-61
2021/11/20 07:49:12;;;;;;;517.73;490.27;;;10.80;99.90;;;;;;4381599;32;20160;-61
2021/11/20 07:51:39;;;;;;;524.93;497.63;;;10.80;99.90;;;;;;4380886;32;20561;-62
2021/11/20 07:54:06;;;;;;;506.83;480.30;;;10.90;99.90;;;;;;4383964;32;20191;-62
2021/11/20 07:56:41;;;;;;;522.40;495.57;;;10.80;99.90;;;;;;4385473;32;20201;-62
2021/11/20 07:59:08;;;;;;;515.90;489.00;;;10.80;99.90;;;;;;4381247;32;20148;-61
2021/11/20 08:01:35;;;;;;;507.00;480.77;;;10.80;99.90;;;;;;4381823;32;20211;-61
2021/11/20 08:04:02;;;;;;;513.73;487.07;;;10.90;99.90;;;;;;4385363;32;20249;-61
2021/11/20 08:06:30;;;;;;;509.80;482.83;;;10.80;99.90;;;;;;4370189;32;20148;-62
2021/11/20 08:08:57;;;;;;;519.60;492.67;;;10.90;99.90;;;;;;4383642;32;20148;-62
2021/11/20 08:11:23;;;;;;;536.67;509.30;;;10.80;99.90;;;;;;4388209;32;20151;-63
2021/11/20 08:13:53;;;;;;;522.53;495.23;;;10.90;99.90;;;;;;4386990;32;20601;-62
2021/11/20 08:16:21;;;;;;;516.87;490.10;;;10.90;99.90;;;;;;4388554;32;20160;-62
2021/11/20 08:18:48;;;;;;;519.67;492.90;;;10.90;99.90;;;;;;4389529;32;20168;-62
2021/11/20 08:21:17;;;;;;;512.20;485.63;;;10.90;99.90;;;;;;4387756;32;20317;-61
2021/11/20 08:23:44;;;;;;;500.93;474.30;;;10.90;99.90;;;;;;4382328;32;20183;-62
2021/11/20 08:26:11;;;;;;;509.53;483.20;;;10.90;99.90;;;;;;4379123;32;20199;-60
2021/11/20 08:28:38;;;;;;;516.90;490.03;;;10.90;99.90;;;;;;4382284;32;20172;-62
2021/11/20 08:31:07;;;;;;;521.10;493.50;;;10.90;99.90;;;;;;4378942;32;20219;-62
2021/11/20 08:33:34;;;;;;;503.13;477.27;;;11.00;99.90;;;;;;4382541;32;20227;-62
2021/11/20 08:36:00;;;;;;;528.57;501.07;;;11.00;99.90;;;;;;4379998;32;20239;-62
2021/11/20 08:38:27;;;;;;;502.07;476.30;;;11.00;99.90;;;;;;4380692;32;20148;-61
2021/11/20 08:40:55;;;;;;;513.80;487.13;;;11.00;99.90;;;;;;4378665;32;20183;-62
2021/11/20 08:43:28;;;;;;;509.37;482.20;;;11.00;99.90;;;;;;4381898;32;20164;-62
2021/11/20 08:45:56;;;;;;;517.00;490.37;;;11.10;99.90;;;;;;4384860;32;20159;-62
2021/11/20 08:48:24;;;;;;;506.80;480.47;;;11.10;99.90;;;;;;4379631;32;20223;-60
2021/11/20 08:50:56;;;;;;;518.43;491.13;;;11.10;99.90;;;;;;4378576;32;20172;-61
2021/11/20 08:53:23;;;;;;;509.53;482.37;;;11.00;99.90;;;;;;4382948;32;20170;-61
2021/11/20 08:55:52;;;;;;;528.77;500.40;;;11.10;99.90;;;;;;4382311;32;20170;-62
2021/11/20 08:58:18;;;;;;;502.40;476.33;;;11.10;99.90;;;;;;4373653;32;20220;-62
2021/11/20 09:00:50;;;;;;;522.83;495.50;;;11.10;99.90;;;;;;4375734;32;20156;-63
2021/11/20 09:03:27;;;;;;;508.80;482.20;;;11.10;99.90;;;;;;4373539;32;20184;-62
2021/11/20 09:05:59;;;;;;;545.30;516.47;;;11.10;99.90;;;;;;4375627;32;20482;-61
2021/11/20 09:08:30;;;;;;;546.20;517.73;;;11.20;99.90;;;;;;4385433;32;20710;-63
2021/11/20 09:11:00;;;;;;;511.77;484.97;;;11.20;99.90;;;;;;4379447;32;20207;-62
2021/11/20 09:13:37;;;;;;;514.73;487.63;;;11.20;99.90;;;;;;4379291;32;20223;-63
2021/11/20 09:16:06;;;;;;;544.90;515.43;;;11.30;99.90;;;;;;4381175;32;20203;-63
2021/11/20 09:18:36;;;;;;;529.90;502.13;;;11.30;99.90;;;;;;4382781;32;20234;-63
2021/11/20 09:21:04;;;;;;;511.80;484.57;;;11.30;99.90;;;;;;4382048;32;20178;-62
2021/11/20 09:23:31;;;;;;;521.90;493.87;;;11.30;99.90;;;;;;4383594;32;20208;-63
2021/11/20 09:25:59;;;;;;;508.90;482.30;;;11.30;99.90;;;;;;4386894;32;20502;-63
2021/11/20 09:28:27;;;;;;;515.37;487.97;;;11.30;99.90;;;;;;4381091;32;20144;-61
2021/11/20 09:30:57;;;;;;;537.80;509.17;;;11.40;99.90;;;;;;4378778;32;20148;-62
2021/11/20 09:33:24;;;;;;;529.80;501.27;;;11.40;99.90;;;;;;4387764;32;20537;-62
2021/11/20 09:35:54;;;;;;;540.07;511.03;;;11.40;99.90;;;;;;4391650;32;20144;-62
2021/11/20 09:38:23;;;;;;;521.30;493.57;;;11.50;99.90;;;;;;4393109;32;20239;-63
2021/11/20 09:41:02;;;;;;;515.50;487.80;;;11.50;99.90;;;;;;4390695;32;20235;-62
2021/11/20 09:43:32;;;;;;;519.13;490.97;;;11.60;99.90;;;;;;4392147;32;20164;-62
2021/11/20 09:46:03;;;;;;;534.30;505.73;;;11.60;99.90;;;;;;4392867;32;20247;-62
2021/11/20 09:48:34;;;;;;;524.70;496.80;;;11.60;99.90;;;;;;4380730;32;20156;-61
2021/11/20 09:51:07;;;;;;;512.20;485.13;;;11.60;99.90;;;;;;4382856;32;20179;-62
2021/11/20 09:53:34;;;;;;;520.67;492.60;;;11.70;99.90;;;;;;4382227;32;20251;-61
2021/11/20 09:56:05;;;;;;;528.90;500.47;;;11.70;99.90;;;;;;4385105;32;20633;-62
2021/11/20 09:58:35;;;;;;;519.13;491.80;;;11.70;99.90;;;;;;4384628;32;20738;-62
2021/11/20 10:01:30;;;;;;;518.67;491.10;;;11.70;99.90;;;;;;4384635;32;20228;-62
2021/11/20 10:04:11;;;;;;;514.07;486.17;;;11.60;99.90;;;;;;4385737;32;20175;-60
2021/11/20 10:06:43;;;;;;;532.10;503.10;;;11.60;99.90;;;;;;4382508;32;20168;-61
2021/11/20 10:09:16;;;;;;;540.30;510.97;;;11.60;99.90;;;;;;4383743;32;20528;-62
2021/11/20 10:12:06;;;;;;;529.97;501.47;;;11.70;99.90;;;;;;4382654;32;20140;-61
2021/11/20 10:14:41;;;;;;;521.03;492.57;;;11.70;99.90;;;;;;4380239;32;20679;-65
2021/11/20 10:17:21;;;;;;;516.47;488.17;;;11.60;99.90;;;;;;4384092;32;20213;-61
2021/11/20 10:19:50;;;;;;;529.47;500.43;;;11.70;99.90;;;;;;4383410;32;20218;-61
2021/11/20 10:22:28;;;;;;;545.30;514.90;;;11.70;99.90;;;;;;4382883;32;20514;-61
2021/11/20 10:25:31;;;;;;;541.57;511.60;;;11.70;99.90;;;;;;4383740;32;20156;-61
2021/11/20 10:28:12;;;;;;;535.17;505.67;;;11.70;99.90;;;;;;4383542;32;20610;-62
2021/11/20 10:30:48;;;;;;;542.03;511.77;;;11.70;99.90;;;;;;4380058;32;20231;-62
2021/11/20 10:33:19;;;;;;;547.60;516.47;;;11.70;99.90;;;;;;4380260;32;20186;-62
2021/11/20 10:35:52;;;;;;;555.40;523.37;;;11.70;99.90;;;;;;4387193;32;20207;-63
2021/11/20 10:38:26;;;;;;;564.93;533.33;;;11.70;99.90;;;;;;4383320;32;20170;-62
2021/11/20 10:40:57;;;;;;;542.63;512.30;;;11.70;99.90;;;;;;4381848;32;20231;-61
2021/11/20 10:43:30;;;;;;;556.20;525.53;;;11.70;99.90;;;;;;4387715;32;20194;-61
2021/11/20 10:46:13;;;;;;;529.63;499.40;;;11.70;99.90;;;;;;4389203;32;20251;-63
2021/11/20 10:48:42;;;;;;;542.60;512.23;;;11.70;99.90;;;;;;4387661;32;20230;-64
2021/11/20 10:51:33;;;;;;;572.30;539.57;;;11.60;99.90;;;;;;4391046;32;20182;-62
2021/11/20 10:54:21;;;;;;;564.27;531.97;;;11.60;99.90;;;;;;4378769;32;20285;-62
2021/11/20 10:56:58;;;;;;;528.30;498.53;;;11.70;99.90;;;;;;4383323;32;20211;-61
2021/11/20 10:59:48;;;;;;;546.63;515.07;;;11.60;99.90;;;;;;4377824;32;23449;-63
2021/11/20 11:02:48;;;;;;;555.47;523.57;;;11.60;99.90;;;;;;4380131;32;20230;-61
2021/11/20 11:05:43;;;;;;;545.70;514.93;;;11.60;99.90;;;;;;4383839;32;20242;-62
2021/11/20 11:08:22;;;;;;;567.87;535.93;;;11.60;99.90;;;;;;4380338;32;20262;-61
2021/11/20 11:10:53;;;;;;;558.63;526.53;;;11.60;99.90;;;;;;4383957;32;20220;-63
2021/11/20 11:13:38;;;;;;;559.77;527.10;;;11.60;99.90;;;;;;4378954;32;20214;-63
2021/11/20 11:16:14;;;;;;;568.00;534.83;;;11.60;99.90;;;;;;4389086;32;20156;-63
2021/11/20 11:18:43;;;;;;;550.20;518.20;;;11.60;99.90;;;;;;4388803;32;20612;-63
2021/11/20 11:21:46;;;;;;;571.83;539.23;;;11.70;99.90;;;;;;4389464;32;20166;-62
2021/11/20 11:24:35;;;;;;;539.60;508.90;;;11.70;99.90;;;;;;4365139;32;20612;-61
2021/11/20 11:27:10;;;;;;;530.63;500.17;;;11.60;99.90;;;;;;4385909;32;20218;-61
2021/11/20 11:29:50;;;;;;;554.40;522.43;;;11.70;99.90;;;;;;4387966;32;20143;-61
2021/11/20 11:32:18;;;;;;;541.17;510.30;;;11.70;99.90;;;;;;4388964;32;20519;-63
2021/11/20 11:34:50;;;;;;;562.70;530.40;;;11.70;99.90;;;;;;4390800;32;20224;-61
2021/11/20 11:37:27;;;;;;;578.47;545.03;;;11.80;99.90;;;;;;4390479;32;20174;-63
2021/11/20 11:40:01;;;;;;;558.93;525.47;;;11.70;99.90;;;;;;4387145;32;20167;-61
2021/11/20 11:42:38;;;;;;;576.77;542.80;;;11.60;99.90;;;;;;4388571;32;20155;-61
2021/11/20 11:45:21;;;;;;;572.40;538.00;;;11.70;99.90;;;;;;4388533;32;20231;-63
2021/11/20 11:47:53;;;;;;;584.37;549.57;;;11.60;99.90;;;;;;4388508;32;20165;-63
2021/11/20 11:50:30;;;;;;;584.67;549.90;;;11.70;99.90;;;;;;4375185;32;20160;-60
2021/11/20 11:53:20;;;;;;;584.37;549.67;;;11.70;99.90;;;;;;4387451;32;20250;-61
2021/11/20 11:55:49;;;;;;;562.77;530.17;;;11.70;99.90;;;;;;4384455;32;20144;-61
2021/11/20 11:58:57;;;;;;;583.43;548.67;;;11.70;99.90;;;;;;4384484;32;20168;-62
2021/11/20 12:01:42;;;;;;;542.80;511.00;;;11.60;99.90;;;;;;4382214;32;20145;-60
2021/11/20 12:04:13;;;;;;;567.13;534.60;;;11.60;99.90;;;;;;4385472;32;20675;-63
2021/11/20 12:07:06;;;;;;;591.17;556.67;;;11.70;99.90;;;;;;4380209;32;20191;-64
2021/11/20 12:09:36;;;;;;;571.60;538.07;;;11.70;99.90;;;;;;4383915;32;20214;-61
2021/11/20 12:12:13;;;;;;;570.73;537.43;;;11.70;99.90;;;;;;4387785;32;20198;-64
2021/11/20 12:14:45;;;;;;;577.23;543.57;;;11.60;99.90;;;;;;4377872;32;20148;-62
2021/11/20 12:17:32;;;;;;;579.47;545.07;;;11.50;99.90;;;;;;4374329;32;20156;-63
2021/11/20 12:20:21;;;;;;;596.77;561.67;;;11.50;99.90;;;;;;4375394;32;20788;-63
2021/11/20 12:23:00;;;;;;;573.50;540.03;;;11.40;99.90;;;;;;4379329;32;20144;-64
2021/11/20 12:25:43;;;;;;;591.00;556.37;;;11.50;99.90;;;;;;4377357;32;20234;-62
2021/11/20 12:28:12;;;;;;;585.97;551.07;;;11.40;99.90;;;;;;4384972;32;20187;-62